sensor_id;sensor_type;location;lat;lon;timestamp;P1;durP1;ratioP1;P2;durP2;ratioP2
62052;SDS011;48300;52.902;6.534;2022-07-04T00:00:13;2.78;;;1.73;;
62052;SDS011;48300;52.902;6.534;2022-07-04T00:02:40;1.20;;;1.00;;
62052;SDS011;48300;52.902;6.534;2022-07-04T00:05:07;3.58;;;1.10;;
62052;SDS011;48300;52.902;6.534;2022-07-04T00:10:01;1.58;;;0.98;;
62052;SDS011;48300;52.902;6.534;2022-07-04T00:12:27;2.38;;;1.40;;
62052;SDS011;48300;52.902;6.534;2022-07-04T00:14:53;2.28;;;1.63;;
62052;SDS011;48300;52.902;6.534;2022-07-04T00:17:19;4.57;;;2.22;;
62052;SDS011;48300;52.902;6.534;2022-07-04T00:19:45;3.53;;;2.05;;
62052;SDS011;48300;52.902;6.534;2022-07-04T00:22:11;4.13;;;1.83;;
62052;SDS011;48300;52.902;6.534;2022-07-04T00:24:37;3.28;;;1.40;;
62052;SDS011;48300;52.902;6.534;2022-07-04T00:27:04;2.50;;;2.00;;
62052;SDS011;48300;52.902;6.534;2022-07-04T00:29:30;2.17;;;1.77;;
62052;SDS011;48300;52.902;6.534;2022-07-04T00:31:58;4.20;;;2.03;;
62052;SDS011;48300;52.902;6.534;2022-07-04T00:34:24;2.30;;;1.92;;
62052;SDS011;48300;52.902;6.534;2022-07-04T00:36:50;3.22;;;1.27;;
62052;SDS011;48300;52.902;6.534;2022-07-04T00:39:16;3.17;;;1.80;;
62052;SDS011;48300;52.902;6.534;2022-07-04T00:41:43;2.75;;;2.00;;
62052;SDS011;48300;52.902;6.534;2022-07-04T00:44:10;3.33;;;2.42;;
62052;SDS011;48300;52.902;6.534;2022-07-04T00:46:36;3.70;;;2.17;;
62052;SDS011;48300;52.902;6.534;2022-07-04T00:49:03;4.43;;;2.47;;
62052;SDS011;48300;52.902;6.534;2022-07-04T00:51:30;4.20;;;2.15;;
62052;SDS011;48300;52.902;6.534;2022-07-04T00:53:56;2.85;;;2.15;;
62052;SDS011;48300;52.902;6.534;2022-07-04T00:56:23;2.50;;;1.70;;
62052;SDS011;48300;52.902;6.534;2022-07-04T00:58:49;6.25;;;2.13;;
62052;SDS011;48300;52.902;6.534;2022-07-04T01:01:16;4.03;;;1.90;;
62052;SDS011;48300;52.902;6.534;2022-07-04T01:03:43;5.95;;;3.92;;
62052;SDS011;48300;52.902;6.534;2022-07-04T01:06:09;6.68;;;3.33;;
62052;SDS011;48300;52.902;6.534;2022-07-04T01:08:37;4.43;;;2.90;;
62052;SDS011;48300;52.902;6.534;2022-07-04T01:11:03;6.68;;;3.28;;
62052;SDS011;48300;52.902;6.534;2022-07-04T01:13:29;4.95;;;3.45;;
62052;SDS011;48300;52.902;6.534;2022-07-04T01:15:56;5.78;;;3.75;;
62052;SDS011;48300;52.902;6.534;2022-07-04T01:18:22;4.93;;;3.50;;
62052;SDS011;48300;52.902;6.534;2022-07-04T01:20:48;12.70;;;4.60;;
62052;SDS011;48300;52.902;6.534;2022-07-04T01:23:14;9.20;;;4.50;;
62052;SDS011;48300;52.902;6.534;2022-07-04T01:25:41;7.90;;;4.45;;
62052;SDS011;48300;52.902;6.534;2022-07-04T01:28:07;6.95;;;4.15;;
62052;SDS011;48300;52.902;6.534;2022-07-04T01:30:33;6.38;;;4.35;;
62052;SDS011;48300;52.902;6.534;2022-07-04T01:33:00;6.43;;;4.40;;
62052;SDS011;48300;52.902;6.534;2022-07-04T01:35:26;6.20;;;4.40;;
62052;SDS011;48300;52.902;6.534;2022-07-04T01:37:52;6.22;;;4.00;;
62052;SDS011;48300;52.902;6.534;2022-07-04T01:40:18;7.60;;;4.75;;
62052;SDS011;48300;52.902;6.534;2022-07-04T01:42:44;6.82;;;4.78;;
62052;SDS011;48300;52.902;6.534;2022-07-04T01:45:11;6.07;;;4.22;;
62052;SDS011;48300;52.902;6.534;2022-07-04T01:47:38;7.25;;;4.22;;
62052;SDS011;48300;52.902;6.534;2022-07-04T01:50:05;10.73;;;4.65;;
62052;SDS011;48300;52.902;6.534;2022-07-04T01:52:31;7.43;;;4.88;;
62052;SDS011;48300;52.902;6.534;2022-07-04T01:54:58;7.57;;;4.47;;
62052;SDS011;48300;52.902;6.534;2022-07-04T01:57:24;7.45;;;4.97;;
62052;SDS011;48300;52.902;6.534;2022-07-04T01:59:50;8.40;;;4.38;;
62052;SDS011;48300;52.902;6.534;2022-07-04T02:02:35;5.68;;;3.75;;
62052;SDS011;48300;52.902;6.534;2022-07-04T02:05:02;8.45;;;4.35;;
62052;SDS011;48300;52.902;6.534;2022-07-04T02:07:28;7.82;;;4.45;;
62052;SDS011;48300;52.902;6.534;2022-07-04T02:09:54;7.47;;;4.90;;
62052;SDS011;48300;52.902;6.534;2022-07-04T02:12:20;7.68;;;4.28;;
62052;SDS011;48300;52.902;6.534;2022-07-04T02:15:05;5.45;;;3.35;;
62052;SDS011;48300;52.902;6.534;2022-07-04T02:17:31;5.65;;;3.67;;
62052;SDS011;48300;52.902;6.534;2022-07-04T02:19:58;9.23;;;4.80;;
62052;SDS011;48300;52.902;6.534;2022-07-04T02:22:24;5.60;;;4.40;;
62052;SDS011;48300;52.902;6.534;2022-07-04T02:24:50;7.60;;;4.60;;
62052;SDS011;48300;52.902;6.534;2022-07-04T02:27:16;9.43;;;4.63;;
62052;SDS011;48300;52.902;6.534;2022-07-04T02:29:43;8.02;;;4.57;;
62052;SDS011;48300;52.902;6.534;2022-07-04T02:32:09;9.57;;;3.97;;
62052;SDS011;48300;52.902;6.534;2022-07-04T02:34:35;4.63;;;3.30;;
62052;SDS011;48300;52.902;6.534;2022-07-04T02:37:01;6.88;;;3.22;;
62052;SDS011;48300;52.902;6.534;2022-07-04T02:39:28;4.35;;;3.13;;
62052;SDS011;48300;52.902;6.534;2022-07-04T02:41:54;6.00;;;2.60;;
62052;SDS011;48300;52.902;6.534;2022-07-04T02:44:20;5.00;;;3.05;;
62052;SDS011;48300;52.902;6.534;2022-07-04T02:46:46;7.03;;;3.88;;
62052;SDS011;48300;52.902;6.534;2022-07-04T02:49:12;4.80;;;2.50;;
62052;SDS011;48300;52.902;6.534;2022-07-04T02:51:38;3.42;;;2.50;;
62052;SDS011;48300;52.902;6.534;2022-07-04T02:54:04;5.07;;;2.90;;
62052;SDS011;48300;52.902;6.534;2022-07-04T02:56:31;3.65;;;2.40;;
62052;SDS011;48300;52.902;6.534;2022-07-04T02:58:57;5.43;;;2.03;;
62052;SDS011;48300;52.902;6.534;2022-07-04T03:01:23;2.35;;;1.95;;
62052;SDS011;48300;52.902;6.534;2022-07-04T03:03:49;2.83;;;2.20;;
62052;SDS011;48300;52.902;6.534;2022-07-04T03:06:15;3.70;;;2.85;;
62052;SDS011;48300;52.902;6.534;2022-07-04T03:08:41;2.60;;;1.92;;
62052;SDS011;48300;52.902;6.534;2022-07-04T03:11:07;3.60;;;2.20;;
62052;SDS011;48300;52.902;6.534;2022-07-04T03:13:35;3.25;;;2.17;;
62052;SDS011;48300;52.902;6.534;2022-07-04T03:16:01;3.72;;;2.30;;
62052;SDS011;48300;52.902;6.534;2022-07-04T03:18:27;3.55;;;2.75;;
62052;SDS011;48300;52.902;6.534;2022-07-04T03:20:53;4.70;;;2.90;;
62052;SDS011;48300;52.902;6.534;2022-07-04T03:23:19;4.10;;;2.88;;
62052;SDS011;48300;52.902;6.534;2022-07-04T03:25:45;4.45;;;2.95;;
62052;SDS011;48300;52.902;6.534;2022-07-04T03:28:11;8.93;;;3.28;;
62052;SDS011;48300;52.902;6.534;2022-07-04T03:30:38;7.10;;;3.40;;
62052;SDS011;48300;52.902;6.534;2022-07-04T03:33:04;6.35;;;3.17;;
62052;SDS011;48300;52.902;6.534;2022-07-04T03:35:30;6.28;;;3.47;;
62052;SDS011;48300;52.902;6.534;2022-07-04T03:37:56;7.40;;;3.60;;
62052;SDS011;48300;52.902;6.534;2022-07-04T03:40:22;4.45;;;3.00;;
62052;SDS011;48300;52.902;6.534;2022-07-04T03:42:49;4.68;;;3.28;;
62052;SDS011;48300;52.902;6.534;2022-07-04T03:45:15;4.72;;;3.45;;
62052;SDS011;48300;52.902;6.534;2022-07-04T03:47:41;6.65;;;3.78;;
62052;SDS011;48300;52.902;6.534;2022-07-04T03:50:07;4.47;;;3.25;;
62052;SDS011;48300;52.902;6.534;2022-07-04T03:52:34;4.20;;;3.10;;
62052;SDS011;48300;52.902;6.534;2022-07-04T03:55:00;8.70;;;3.92;;
62052;SDS011;48300;52.902;6.534;2022-07-04T03:57:26;5.45;;;3.75;;
62052;SDS011;48300;52.902;6.534;2022-07-04T03:59:52;5.35;;;3.75;;
62052;SDS011;48300;52.902;6.534;2022-07-04T04:02:18;7.55;;;3.92;;
62052;SDS011;48300;52.902;6.534;2022-07-04T04:04:44;6.95;;;4.32;;
62052;SDS011;48300;52.902;6.534;2022-07-04T04:07:29;7.10;;;4.03;;
62052;SDS011;48300;52.902;6.534;2022-07-04T04:09:55;11.38;;;4.50;;
62052;SDS011;48300;52.902;6.534;2022-07-04T04:12:21;6.25;;;4.72;;
62052;SDS011;48300;52.902;6.534;2022-07-04T04:14:47;7.43;;;4.68;;
62052;SDS011;48300;52.902;6.534;2022-07-04T04:17:13;10.07;;;4.88;;
62052;SDS011;48300;52.902;6.534;2022-07-04T04:19:39;6.30;;;4.63;;
62052;SDS011;48300;52.902;6.534;2022-07-04T04:22:05;6.57;;;4.35;;
62052;SDS011;48300;52.902;6.534;2022-07-04T04:24:31;8.52;;;4.45;;
62052;SDS011;48300;52.902;6.534;2022-07-04T04:26:58;5.70;;;4.32;;
62052;SDS011;48300;52.902;6.534;2022-07-04T04:29:24;9.68;;;4.90;;
62052;SDS011;48300;52.902;6.534;2022-07-04T04:31:50;10.20;;;4.93;;
62052;SDS011;48300;52.902;6.534;2022-07-04T04:34:16;7.93;;;4.82;;
62052;SDS011;48300;52.902;6.534;2022-07-04T04:36:42;5.88;;;4.70;;
62052;SDS011;48300;52.902;6.534;2022-07-04T04:39:08;6.53;;;4.40;;
62052;SDS011;48300;52.902;6.534;2022-07-04T04:41:34;10.10;;;4.85;;
62052;SDS011;48300;52.902;6.534;2022-07-04T04:44:00;10.00;;;5.57;;
62052;SDS011;48300;52.902;6.534;2022-07-04T04:46:26;10.55;;;6.10;;
62052;SDS011;48300;52.902;6.534;2022-07-04T04:48:53;10.93;;;6.47;;
62052;SDS011;48300;52.902;6.534;2022-07-04T04:51:19;9.65;;;5.72;;
62052;SDS011;48300;52.902;6.534;2022-07-04T04:53:45;14.45;;;6.53;;
62052;SDS011;48300;52.902;6.534;2022-07-04T04:56:11;11.63;;;7.60;;
62052;SDS011;48300;52.902;6.534;2022-07-04T04:58:37;14.63;;;7.93;;
62052;SDS011;48300;52.902;6.534;2022-07-04T05:01:03;15.70;;;8.60;;
62052;SDS011;48300;52.902;6.534;2022-07-04T05:03:29;14.57;;;9.02;;
62052;SDS011;48300;52.902;6.534;2022-07-04T05:05:55;23.50;;;9.38;;
62052;SDS011;48300;52.902;6.534;2022-07-04T05:08:21;15.65;;;8.98;;
62052;SDS011;48300;52.902;6.534;2022-07-04T05:10:50;17.17;;;9.02;;
62052;SDS011;48300;52.902;6.534;2022-07-04T05:13:16;15.98;;;8.82;;
62052;SDS011;48300;52.902;6.534;2022-07-04T05:15:42;15.88;;;8.57;;
62052;SDS011;48300;52.902;6.534;2022-07-04T05:18:08;15.45;;;8.93;;
62052;SDS011;48300;52.902;6.534;2022-07-04T05:20:34;18.33;;;7.85;;
62052;SDS011;48300;52.902;6.534;2022-07-04T05:23:01;17.48;;;7.38;;
62052;SDS011;48300;52.902;6.534;2022-07-04T05:25:27;13.23;;;6.97;;
62052;SDS011;48300;52.902;6.534;2022-07-04T05:27:53;15.70;;;7.60;;
62052;SDS011;48300;52.902;6.534;2022-07-04T05:30:19;16.52;;;7.20;;
62052;SDS011;48300;52.902;6.534;2022-07-04T05:32:45;15.35;;;6.47;;
62052;SDS011;48300;52.902;6.534;2022-07-04T05:35:11;12.70;;;6.45;;
62052;SDS011;48300;52.902;6.534;2022-07-04T05:37:37;11.98;;;6.15;;
62052;SDS011;48300;52.902;6.534;2022-07-04T05:40:04;12.15;;;5.80;;
62052;SDS011;48300;52.902;6.534;2022-07-04T05:42:30;8.90;;;5.15;;
62052;SDS011;48300;52.902;6.534;2022-07-04T05:44:56;10.82;;;5.57;;
62052;SDS011;48300;52.902;6.534;2022-07-04T05:47:23;8.05;;;5.47;;
62052;SDS011;48300;52.902;6.534;2022-07-04T05:49:50;12.85;;;5.80;;
62052;SDS011;48300;52.902;6.534;2022-07-04T05:52:16;14.45;;;5.57;;
62052;SDS011;48300;52.902;6.534;2022-07-04T05:54:42;10.13;;;5.38;;
62052;SDS011;48300;52.902;6.534;2022-07-04T05:57:08;11.15;;;5.07;;
62052;SDS011;48300;52.902;6.534;2022-07-04T05:59:35;10.60;;;4.80;;
62052;SDS011;48300;52.902;6.534;2022-07-04T06:02:01;17.02;;;4.65;;
62052;SDS011;48300;52.902;6.534;2022-07-04T06:04:27;9.82;;;4.32;;
62052;SDS011;48300;52.902;6.534;2022-07-04T06:06:54;6.20;;;4.07;;
62052;SDS011;48300;52.902;6.534;2022-07-04T06:09:20;9.82;;;4.35;;
62052;SDS011;48300;52.902;6.534;2022-07-04T06:11:46;10.70;;;4.30;;
62052;SDS011;48300;52.902;6.534;2022-07-04T06:14:12;8.63;;;4.50;;
62052;SDS011;48300;52.902;6.534;2022-07-04T06:16:38;9.82;;;4.57;;
62052;SDS011;48300;52.902;6.534;2022-07-04T06:19:04;10.18;;;4.07;;
62052;SDS011;48300;52.902;6.534;2022-07-04T06:21:30;11.20;;;4.38;;
62052;SDS011;48300;52.902;6.534;2022-07-04T06:23:56;10.13;;;4.20;;
62052;SDS011;48300;52.902;6.534;2022-07-04T06:26:23;6.40;;;3.78;;
62052;SDS011;48300;52.902;6.534;2022-07-04T06:28:49;12.25;;;4.78;;
62052;SDS011;48300;52.902;6.534;2022-07-04T06:31:15;8.88;;;4.07;;
62052;SDS011;48300;52.902;6.534;2022-07-04T06:33:42;9.80;;;4.40;;
62052;SDS011;48300;52.902;6.534;2022-07-04T06:36:27;7.78;;;4.22;;
62052;SDS011;48300;52.902;6.534;2022-07-04T06:38:53;9.32;;;4.07;;
62052;SDS011;48300;52.902;6.534;2022-07-04T06:41:19;11.50;;;4.63;;
62052;SDS011;48300;52.902;6.534;2022-07-04T06:43:45;10.00;;;4.45;;
62052;SDS011;48300;52.902;6.534;2022-07-04T06:46:11;15.40;;;5.65;;
62052;SDS011;48300;52.902;6.534;2022-07-04T06:48:37;8.00;;;4.28;;
62052;SDS011;48300;52.902;6.534;2022-07-04T06:51:04;11.82;;;4.63;;
62052;SDS011;48300;52.902;6.534;2022-07-04T06:53:30;15.75;;;4.85;;
62052;SDS011;48300;52.902;6.534;2022-07-04T06:55:56;12.10;;;5.15;;
62052;SDS011;48300;52.902;6.534;2022-07-04T06:58:22;10.70;;;4.63;;
62052;SDS011;48300;52.902;6.534;2022-07-04T07:00:48;9.18;;;4.88;;
62052;SDS011;48300;52.902;6.534;2022-07-04T07:03:14;13.05;;;5.28;;
62052;SDS011;48300;52.902;6.534;2022-07-04T07:05:40;12.40;;;4.93;;
62052;SDS011;48300;52.902;6.534;2022-07-04T07:08:07;18.30;;;5.20;;
62052;SDS011;48300;52.902;6.534;2022-07-04T07:10:33;12.50;;;5.13;;
62052;SDS011;48300;52.902;6.534;2022-07-04T07:13:01;8.63;;;4.65;;
62052;SDS011;48300;52.902;6.534;2022-07-04T07:15:27;10.88;;;4.55;;
62052;SDS011;48300;52.902;6.534;2022-07-04T07:17:53;11.00;;;5.55;;
62052;SDS011;48300;52.902;6.534;2022-07-04T07:20:19;11.55;;;4.70;;
62052;SDS011;48300;52.902;6.534;2022-07-04T07:22:45;8.80;;;3.70;;
62052;SDS011;48300;52.902;6.534;2022-07-04T07:25:12;11.65;;;4.45;;
62052;SDS011;48300;52.902;6.534;2022-07-04T07:27:39;9.77;;;4.55;;
62052;SDS011;48300;52.902;6.534;2022-07-04T07:30:06;9.80;;;4.07;;
62052;SDS011;48300;52.902;6.534;2022-07-04T07:32:32;10.50;;;5.75;;
62052;SDS011;48300;52.902;6.534;2022-07-04T07:34:59;11.30;;;5.10;;
62052;SDS011;48300;52.902;6.534;2022-07-04T07:37:25;9.63;;;5.15;;
62052;SDS011;48300;52.902;6.534;2022-07-04T07:39:51;9.20;;;4.35;;
62052;SDS011;48300;52.902;6.534;2022-07-04T07:42:17;10.55;;;4.55;;
62052;SDS011;48300;52.902;6.534;2022-07-04T07:44:43;13.57;;;5.45;;
62052;SDS011;48300;52.902;6.534;2022-07-04T07:47:12;14.48;;;5.88;;
62052;SDS011;48300;52.902;6.534;2022-07-04T07:49:40;13.48;;;4.70;;
62052;SDS011;48300;52.902;6.534;2022-07-04T07:52:06;9.13;;;4.13;;
62052;SDS011;48300;52.902;6.534;2022-07-04T07:54:33;11.40;;;3.75;;
62052;SDS011;48300;52.902;6.534;2022-07-04T07:56:59;13.02;;;4.20;;
62052;SDS011;48300;52.902;6.534;2022-07-04T07:59:25;10.70;;;4.53;;
62052;SDS011;48300;52.902;6.534;2022-07-04T08:01:51;11.13;;;3.85;;
62052;SDS011;48300;52.902;6.534;2022-07-04T08:04:18;10.77;;;3.65;;
62052;SDS011;48300;52.902;6.534;2022-07-04T08:07:05;11.63;;;3.38;;
62052;SDS011;48300;52.902;6.534;2022-07-04T08:09:31;11.70;;;3.10;;
62052;SDS011;48300;52.902;6.534;2022-07-04T08:11:58;7.85;;;3.30;;
62052;SDS011;48300;52.902;6.534;2022-07-04T08:14:24;7.35;;;2.13;;
62052;SDS011;48300;52.902;6.534;2022-07-04T08:16:50;6.63;;;2.40;;
62052;SDS011;48300;52.902;6.534;2022-07-04T08:19:16;12.40;;;2.38;;
62052;SDS011;48300;52.902;6.534;2022-07-04T08:21:42;8.40;;;2.35;;
62052;SDS011;48300;52.902;6.534;2022-07-04T08:24:12;4.47;;;1.67;;
62052;SDS011;48300;52.902;6.534;2022-07-04T08:26:38;5.03;;;1.45;;
62052;SDS011;48300;52.902;6.534;2022-07-04T08:29:04;8.15;;;1.90;;
62052;SDS011;48300;52.902;6.534;2022-07-04T08:31:30;8.73;;;2.00;;
62052;SDS011;48300;52.902;6.534;2022-07-04T08:33:56;5.85;;;2.45;;
62052;SDS011;48300;52.902;6.534;2022-07-04T08:36:23;6.47;;;1.52;;
62052;SDS011;48300;52.902;6.534;2022-07-04T08:38:49;6.25;;;2.00;;
62052;SDS011;48300;52.902;6.534;2022-07-04T08:41:15;6.18;;;2.10;;
62052;SDS011;48300;52.902;6.534;2022-07-04T08:43:42;5.65;;;2.00;;
62052;SDS011;48300;52.902;6.534;2022-07-04T08:46:09;7.55;;;1.90;;
62052;SDS011;48300;52.902;6.534;2022-07-04T08:48:37;5.30;;;1.80;;
62052;SDS011;48300;52.902;6.534;2022-07-04T08:51:09;5.28;;;1.58;;
62052;SDS011;48300;52.902;6.534;2022-07-04T08:53:38;9.52;;;1.98;;
62052;SDS011;48300;52.902;6.534;2022-07-04T08:56:05;7.70;;;1.50;;
62052;SDS011;48300;52.902;6.534;2022-07-04T08:58:58;6.65;;;1.88;;
62052;SDS011;48300;52.902;6.534;2022-07-04T09:01:24;3.97;;;1.40;;
62052;SDS011;48300;52.902;6.534;2022-07-04T09:03:52;6.15;;;1.48;;
62052;SDS011;48300;52.902;6.534;2022-07-04T09:06:19;7.25;;;1.40;;
62052;SDS011;48300;52.902;6.534;2022-07-04T09:08:45;4.90;;;1.77;;
62052;SDS011;48300;52.902;6.534;2022-07-04T09:11:11;7.72;;;1.73;;
62052;SDS011;48300;52.902;6.534;2022-07-04T09:13:38;5.28;;;1.50;;
62052;SDS011;48300;52.902;6.534;2022-07-04T09:16:04;5.72;;;1.60;;
62052;SDS011;48300;52.902;6.534;2022-07-04T09:18:31;5.57;;;1.23;;
62052;SDS011;48300;52.902;6.534;2022-07-04T09:20:59;5.75;;;1.38;;
62052;SDS011;48300;52.902;6.534;2022-07-04T09:23:26;5.93;;;1.40;;
62052;SDS011;48300;52.902;6.534;2022-07-04T09:26:11;6.03;;;1.48;;
62052;SDS011;48300;52.902;6.534;2022-07-04T09:28:39;3.38;;;1.10;;
62052;SDS011;48300;52.902;6.534;2022-07-04T09:31:15;7.43;;;1.20;;
62052;SDS011;48300;52.902;6.534;2022-07-04T09:33:43;3.30;;;1.50;;
62052;SDS011;48300;52.902;6.534;2022-07-04T09:36:12;4.78;;;1.00;;
62052;SDS011;48300;52.902;6.534;2022-07-04T09:41:04;4.53;;;1.75;;
62052;SDS011;48300;52.902;6.534;2022-07-04T09:44:03;7.97;;;1.13;;
62052;SDS011;48300;52.902;6.534;2022-07-04T09:46:30;5.45;;;1.30;;
62052;SDS011;48300;52.902;6.534;2022-07-04T09:48:56;3.70;;;1.10;;
62052;SDS011;48300;52.902;6.534;2022-07-04T09:51:43;1.80;;;0.90;;
62052;SDS011;48300;52.902;6.534;2022-07-04T09:54:19;2.03;;;0.70;;
62052;SDS011;48300;52.902;6.534;2022-07-04T09:56:47;3.70;;;1.40;;
62052;SDS011;48300;52.902;6.534;2022-07-04T09:59:13;4.93;;;1.00;;
62052;SDS011;48300;52.902;6.534;2022-07-04T10:01:40;3.88;;;0.80;;
62052;SDS011;48300;52.902;6.534;2022-07-04T10:04:06;1.98;;;0.77;;
62052;SDS011;48300;52.902;6.534;2022-07-04T10:06:34;3.72;;;0.70;;
62052;SDS011;48300;52.902;6.534;2022-07-04T10:09:09;3.15;;;0.77;;
62052;SDS011;48300;52.902;6.534;2022-07-04T10:11:36;3.38;;;0.90;;
62052;SDS011;48300;52.902;6.534;2022-07-04T10:14:04;4.75;;;1.50;;
62052;SDS011;48300;52.902;6.534;2022-07-04T10:16:30;3.70;;;0.90;;
62052;SDS011;48300;52.902;6.534;2022-07-04T10:18:56;4.65;;;0.90;;
62052;SDS011;48300;52.902;6.534;2022-07-04T10:21:23;2.53;;;0.80;;
62052;SDS011;48300;52.902;6.534;2022-07-04T10:23:49;2.42;;;0.65;;
62052;SDS011;48300;52.902;6.534;2022-07-04T10:26:18;2.97;;;0.73;;
62052;SDS011;48300;52.902;6.534;2022-07-04T10:28:44;2.25;;;0.95;;
62052;SDS011;48300;52.902;6.534;2022-07-04T10:31:12;2.75;;;1.05;;
62052;SDS011;48300;52.902;6.534;2022-07-04T10:33:39;4.03;;;1.10;;
62052;SDS011;48300;52.902;6.534;2022-07-04T10:36:15;4.93;;;0.93;;
62052;SDS011;48300;52.902;6.534;2022-07-04T10:38:49;2.42;;;0.77;;
62052;SDS011;48300;52.902;6.534;2022-07-04T10:41:16;2.45;;;1.00;;
62052;SDS011;48300;52.902;6.534;2022-07-04T10:43:55;4.35;;;1.20;;
62052;SDS011;48300;52.902;6.534;2022-07-04T10:48:50;4.60;;;1.10;;
62052;SDS011;48300;52.902;6.534;2022-07-04T10:51:46;2.85;;;1.10;;
62052;SDS011;48300;52.902;6.534;2022-07-04T10:54:05;4.93;;;1.23;;
62052;SDS011;48300;52.902;6.534;2022-07-04T10:59:09;5.07;;;1.35;;
62052;SDS011;48300;52.902;6.534;2022-07-04T11:01:35;1.48;;;0.95;;
62052;SDS011;48300;52.902;6.534;2022-07-04T11:04:02;4.18;;;1.23;;
62052;SDS011;48300;52.902;6.534;2022-07-04T11:09:14;4.40;;;1.20;;
62052;SDS011;48300;52.902;6.534;2022-07-04T11:11:50;3.53;;;1.08;;
62052;SDS011;48300;52.902;6.534;2022-07-04T11:14:36;2.38;;;1.23;;
62052;SDS011;48300;52.902;6.534;2022-07-04T11:17:04;4.38;;;1.10;;
62052;SDS011;48300;52.902;6.534;2022-07-04T11:19:31;4.43;;;1.42;;
62052;SDS011;48300;52.902;6.534;2022-07-04T11:21:57;4.97;;;1.38;;
62052;SDS011;48300;52.902;6.534;2022-07-04T11:24:24;2.67;;;1.15;;
62052;SDS011;48300;52.902;6.534;2022-07-04T11:26:50;3.38;;;1.60;;
62052;SDS011;48300;52.902;6.534;2022-07-04T11:29:17;2.20;;;1.17;;
62052;SDS011;48300;52.902;6.534;2022-07-04T11:31:44;3.28;;;0.73;;
62052;SDS011;48300;52.902;6.534;2022-07-04T11:34:10;1.97;;;0.90;;
62052;SDS011;48300;52.902;6.534;2022-07-04T11:36:38;3.72;;;1.10;;
62052;SDS011;48300;52.902;6.534;2022-07-04T11:41:32;2.90;;;1.13;;
62052;SDS011;48300;52.902;6.534;2022-07-04T11:44:18;4.72;;;1.20;;
62052;SDS011;48300;52.902;6.534;2022-07-04T11:47:04;4.32;;;0.90;;
62052;SDS011;48300;52.902;6.534;2022-07-04T11:49:31;4.05;;;0.90;;
62052;SDS011;48300;52.902;6.534;2022-07-04T11:51:57;5.00;;;0.90;;
62052;SDS011;48300;52.902;6.534;2022-07-04T11:54:23;1.02;;;0.70;;
62052;SDS011;48300;52.902;6.534;2022-07-04T11:56:50;3.80;;;0.90;;
62052;SDS011;48300;52.902;6.534;2022-07-04T11:59:16;3.67;;;0.90;;
62052;SDS011;48300;52.902;6.534;2022-07-04T12:01:43;3.25;;;1.02;;
62052;SDS011;48300;52.902;6.534;2022-07-04T12:04:13;2.95;;;0.80;;
62052;SDS011;48300;52.902;6.534;2022-07-04T12:06:40;3.35;;;0.90;;
62052;SDS011;48300;52.902;6.534;2022-07-04T12:09:06;2.22;;;0.90;;
62052;SDS011;48300;52.902;6.534;2022-07-04T12:11:51;3.95;;;0.80;;
62052;SDS011;48300;52.902;6.534;2022-07-04T12:14:17;1.70;;;0.60;;
62052;SDS011;48300;52.902;6.534;2022-07-04T12:16:44;1.50;;;0.75;;
62052;SDS011;48300;52.902;6.534;2022-07-04T12:21:38;3.75;;;0.80;;
62052;SDS011;48300;52.902;6.534;2022-07-04T12:24:04;1.90;;;0.50;;
62052;SDS011;48300;52.902;6.534;2022-07-04T12:26:31;4.13;;;1.20;;
62052;SDS011;48300;52.902;6.534;2022-07-04T12:28:57;2.95;;;0.60;;
62052;SDS011;48300;52.902;6.534;2022-07-04T12:31:37;4.10;;;0.88;;
62052;SDS011;48300;52.902;6.534;2022-07-04T12:34:04;5.05;;;0.70;;
62052;SDS011;48300;52.902;6.534;2022-07-04T12:36:48;3.83;;;0.50;;
62052;SDS011;48300;52.902;6.534;2022-07-04T12:39:30;1.55;;;0.50;;
62052;SDS011;48300;52.902;6.534;2022-07-04T12:42:03;4.43;;;0.60;;
62052;SDS011;48300;52.902;6.534;2022-07-04T12:44:30;3.40;;;0.70;;
62052;SDS011;48300;52.902;6.534;2022-07-04T12:46:56;2.80;;;0.50;;
62052;SDS011;48300;52.902;6.534;2022-07-04T12:49:22;2.03;;;0.57;;
62052;SDS011;48300;52.902;6.534;2022-07-04T12:51:48;2.97;;;0.60;;
62052;SDS011;48300;52.902;6.534;2022-07-04T12:54:15;2.08;;;0.50;;
62052;SDS011;48300;52.902;6.534;2022-07-04T12:56:42;7.82;;;0.50;;
62052;SDS011;48300;52.902;6.534;2022-07-04T12:59:11;4.28;;;0.52;;
62052;SDS011;48300;52.902;6.534;2022-07-04T13:01:38;3.53;;;0.50;;
62052;SDS011;48300;52.902;6.534;2022-07-04T13:04:04;2.47;;;0.52;;
62052;SDS011;48300;52.902;6.534;2022-07-04T13:06:30;3.53;;;0.50;;
62052;SDS011;48300;52.902;6.534;2022-07-04T13:08:57;3.63;;;0.57;;
62052;SDS011;48300;52.902;6.534;2022-07-04T13:11:23;3.60;;;0.40;;
62052;SDS011;48300;52.902;6.534;2022-07-04T13:14:08;3.55;;;0.57;;
62052;SDS011;48300;52.902;6.534;2022-07-04T13:16:34;2.13;;;0.65;;
62052;SDS011;48300;52.902;6.534;2022-07-04T13:19:01;0.70;;;0.40;;
62052;SDS011;48300;52.902;6.534;2022-07-04T13:21:27;4.07;;;0.88;;
62052;SDS011;48300;52.902;6.534;2022-07-04T13:23:53;4.28;;;0.68;;
62052;SDS011;48300;52.902;6.534;2022-07-04T13:26:20;0.82;;;0.30;;
62052;SDS011;48300;52.902;6.534;2022-07-04T13:28:46;2.67;;;0.47;;
62052;SDS011;48300;52.902;6.534;2022-07-04T13:31:12;2.30;;;0.50;;
62052;SDS011;48300;52.902;6.534;2022-07-04T13:33:39;3.23;;;0.50;;
62052;SDS011;48300;52.902;6.534;2022-07-04T13:36:06;3.28;;;0.60;;
62052;SDS011;48300;52.902;6.534;2022-07-04T13:38:32;1.02;;;0.50;;
62052;SDS011;48300;52.902;6.534;2022-07-04T13:40:59;1.00;;;0.40;;
62052;SDS011;48300;52.902;6.534;2022-07-04T13:43:26;1.50;;;0.52;;
62052;SDS011;48300;52.902;6.534;2022-07-04T13:45:55;2.53;;;0.52;;
62052;SDS011;48300;52.902;6.534;2022-07-04T13:48:21;1.10;;;0.40;;
62052;SDS011;48300;52.902;6.534;2022-07-04T13:50:47;1.20;;;0.57;;
62052;SDS011;48300;52.902;6.534;2022-07-04T13:53:14;4.13;;;0.47;;
62052;SDS011;48300;52.902;6.534;2022-07-04T13:55:40;1.50;;;0.40;;
62052;SDS011;48300;52.902;6.534;2022-07-04T13:58:08;4.57;;;0.70;;
62052;SDS011;48300;52.902;6.534;2022-07-04T14:00:35;7.00;;;0.75;;
62052;SDS011;48300;52.902;6.534;2022-07-04T14:03:01;4.53;;;0.43;;
62052;SDS011;48300;52.902;6.534;2022-07-04T14:05:27;4.95;;;0.50;;
62052;SDS011;48300;52.902;6.534;2022-07-04T14:07:53;2.40;;;0.40;;
62052;SDS011;48300;52.902;6.534;2022-07-04T14:10:20;2.63;;;0.50;;
62052;SDS011;48300;52.902;6.534;2022-07-04T14:12:46;2.63;;;0.43;;
62052;SDS011;48300;52.902;6.534;2022-07-04T14:15:12;3.95;;;0.45;;
62052;SDS011;48300;52.902;6.534;2022-07-04T14:17:38;2.38;;;0.47;;
62052;SDS011;48300;52.902;6.534;2022-07-04T14:20:05;2.03;;;0.50;;
62052;SDS011;48300;52.902;6.534;2022-07-04T14:22:33;3.92;;;0.60;;
62052;SDS011;48300;52.902;6.534;2022-07-04T14:24:59;1.17;;;0.50;;
62052;SDS011;48300;52.902;6.534;2022-07-04T14:27:25;1.60;;;0.40;;
62052;SDS011;48300;52.902;6.534;2022-07-04T14:29:51;4.22;;;0.50;;
62052;SDS011;48300;52.902;6.534;2022-07-04T14:32:17;4.22;;;0.50;;
62052;SDS011;48300;52.902;6.534;2022-07-04T14:34:43;1.10;;;0.30;;
62052;SDS011;48300;52.902;6.534;2022-07-04T14:37:10;1.00;;;0.30;;
62052;SDS011;48300;52.902;6.534;2022-07-04T14:39:36;1.70;;;0.40;;
62052;SDS011;48300;52.902;6.534;2022-07-04T14:42:02;3.15;;;0.60;;
62052;SDS011;48300;52.902;6.534;2022-07-04T14:44:28;2.13;;;0.43;;
62052;SDS011;48300;52.902;6.534;2022-07-04T14:46:54;6.90;;;0.40;;
62052;SDS011;48300;52.902;6.534;2022-07-04T14:49:21;0.43;;;0.22;;
62052;SDS011;48300;52.902;6.534;2022-07-04T14:51:47;1.17;;;0.30;;
62052;SDS011;48300;52.902;6.534;2022-07-04T14:54:13;1.30;;;0.50;;
62052;SDS011;48300;52.902;6.534;2022-07-04T14:56:39;1.05;;;0.30;;
62052;SDS011;48300;52.902;6.534;2022-07-04T14:59:06;2.60;;;0.35;;
62052;SDS011;48300;52.902;6.534;2022-07-04T15:01:32;4.05;;;0.40;;
62052;SDS011;48300;52.902;6.534;2022-07-04T15:03:58;1.85;;;0.30;;